createdAt,value
2022-08-07T00:02:35.558Z,92.30
2022-08-07T00:04:11.201Z,92.30
2022-08-07T00:06:51.901Z,92.30
2022-08-07T00:09:22.356Z,92.40
2022-08-07T00:11:55.774Z,92.50
2022-08-07T00:14:25.538Z,92.60
2022-08-07T00:17:02.554Z,92.70
2022-08-07T00:20:00.668Z,92.90
2022-08-07T00:22:24.620Z,93.00
2022-08-07T00:25:15.828Z,92.90
2022-08-07T00:27:53.534Z,93.00
2022-08-07T00:30:27.258Z,92.90
2022-08-07T00:32:59.992Z,92.90
2022-08-07T00:35:29.735Z,93.00
2022-08-07T00:37:58.494Z,93.10
2022-08-07T00:40:36.228Z,93.20
2022-08-07T00:43:09.716Z,93.20
2022-08-07T00:45:40.346Z,93.20
2022-08-07T00:48:10.924Z,93.20
2022-08-07T00:50:50.248Z,93.30
2022-08-07T00:53:20.370Z,93.40
2022-08-07T00:56:02.446Z,93.50
2022-08-07T00:58:31.425Z,93.60
2022-08-07T01:00:59.243Z,93.70
2022-08-07T01:03:55.954Z,93.70
2022-08-07T01:06:14.413Z,93.70
2022-08-07T01:08:51.551Z,93.80
2022-08-07T01:12:04.551Z,94.00
2022-08-07T01:14:09.256Z,94.00
2022-08-07T01:16:37.180Z,94.00
2022-08-07T01:19:18.385Z,94.00
2022-08-07T01:21:53.433Z,94.10
2022-08-07T01:24:27.687Z,94.20
2022-08-07T01:27:00.518Z,94.30
2022-08-07T01:29:31.450Z,94.70
2022-08-07T01:32:05.501Z,94.30
2022-08-07T01:34:34.578Z,94.50
2022-08-07T01:37:13.653Z,94.60
2022-08-07T01:39:46.572Z,94.60
2022-08-07T01:42:38.231Z,94.70
2022-08-07T01:45:18.173Z,94.90
2022-08-07T01:48:29.700Z,94.80
2022-08-07T01:50:43.133Z,94.90
2022-08-07T01:53:21.113Z,95.10
2022-08-07T01:56:10.680Z,95.20
2022-08-07T01:58:50.896Z,95.30
2022-08-07T02:01:59.365Z,95.30
2022-08-07T02:04:28.698Z,95.40
2022-08-07T02:07:03.036Z,95.60
2022-08-07T02:09:51.537Z,95.50
2022-08-07T02:12:29.254Z,95.60
2022-08-07T02:15:01.719Z,95.70
2022-08-07T02:17:41.736Z,95.70
2022-08-07T02:20:23.387Z,96.00
2022-08-07T02:22:59.767Z,96.00
2022-08-07T02:25:47.239Z,96.00
2022-08-07T02:28:25.403Z,96.00
2022-08-07T02:30:57.625Z,96.10
2022-08-07T02:33:42.122Z,96.20
2022-08-07T02:36:29.773Z,96.30
2022-08-07T02:39:16.413Z,96.30
2022-08-07T02:41:54.393Z,96.40
2022-08-07T02:44:27.644Z,96.40
2022-08-07T02:47:05.720Z,96.60
2022-08-07T02:49:57.931Z,96.60
2022-08-07T02:52:34.775Z,96.60
2022-08-07T02:55:15.613Z,96.70
2022-08-07T02:57:59.114Z,96.80
2022-08-07T03:00:30.519Z,96.90
2022-08-07T03:02:59.571Z,96.90
2022-08-07T03:05:37.097Z,97.00
2022-08-07T03:08:10.518Z,97.20
2022-08-07T03:10:46.685Z,97.30
2022-08-07T03:13:19.411Z,97.60
2022-08-07T03:15:58.372Z,97.60
2022-08-07T03:18:34.584Z,97.80
2022-08-07T03:21:08.524Z,97.90
2022-08-07T03:24:20.400Z,97.90
2022-08-07T03:26:31.947Z,98.10
2022-08-07T03:29:04.018Z,98.20
2022-08-07T03:31:42.271Z,98.30
2022-08-07T03:34:18.625Z,98.40
2022-08-07T03:36:53.158Z,98.40
2022-08-07T03:39:45.823Z,98.70
2022-08-07T03:42:12.665Z,98.80
2022-08-07T03:44:41.560Z,98.60
2022-08-07T03:47:11.215Z,98.80
2022-08-07T03:49:41.393Z,99.00
2022-08-07T03:52:22.414Z,99.00
2022-08-07T03:54:55.261Z,99.00
2022-08-07T03:58:33.261Z,99.00
2022-08-07T04:00:15.008Z,98.90
2022-08-07T04:02:49.570Z,99.40
2022-08-07T04:05:39.769Z,99.40
2022-08-07T04:08:13.113Z,99.50
2022-08-07T04:10:54.528Z,99.50
2022-08-07T04:14:10.006Z,99.70
2022-08-07T04:16:31.445Z,99.70
2022-08-07T04:19:04.312Z,99.80
2022-08-07T04:21:59.354Z,99.90
2022-08-07T04:24:38.668Z,99.90
2022-08-07T04:27:15.320Z,99.90
2022-08-07T04:30:01.831Z,99.90
2022-08-07T04:32:58.204Z,99.90
2022-08-07T04:35:26.452Z,99.90
2022-08-07T04:38:02.960Z,99.90
2022-08-07T04:40:33.284Z,99.90
2022-08-07T04:43:01.185Z,99.90
2022-08-07T04:46:01.581Z,99.90
2022-08-07T04:48:55.527Z,99.90
2022-08-07T04:51:45.068Z,99.90
2022-08-07T04:54:29.866Z,99.90
2022-08-07T04:58:11.157Z,99.90
2022-08-07T05:00:11.120Z,99.90
2022-08-07T05:03:31.259Z,99.90
2022-08-07T05:06:20.180Z,99.90
2022-08-07T05:09:09.082Z,99.90
2022-08-07T05:11:57.171Z,99.90
2022-08-07T05:14:52.438Z,99.90
2022-08-07T05:17:52.868Z,99.90
2022-08-07T05:20:11.680Z,99.90
2022-08-07T05:22:43.232Z,99.90
2022-08-07T05:25:25.924Z,99.90
2022-08-07T05:28:03.088Z,99.90
2022-08-07T05:30:48.317Z,99.90
2022-08-07T05:33:18.093Z,99.90
2022-08-07T05:35:49.828Z,99.90
2022-08-07T05:38:58.132Z,99.90
2022-08-07T05:41:05.544Z,99.90
2022-08-07T05:44:08.660Z,99.90
2022-08-07T05:46:31.767Z,99.90
2022-08-07T05:48:59.836Z,99.90
2022-08-07T05:51:33.295Z,99.90
2022-08-07T05:54:13.456Z,99.60
2022-08-07T05:56:56.435Z,99.30
2022-08-07T05:59:26.325Z,99.00
2022-08-07T06:02:02.940Z,99.40
2022-08-07T06:04:31.991Z,98.90
2022-08-07T06:07:04.319Z,98.50
2022-08-07T06:10:03.849Z,98.20
2022-08-07T06:12:21.060Z,98.10
2022-08-07T06:14:58.680Z,98.20
2022-08-07T06:17:37.802Z,97.90
2022-08-07T06:20:12.390Z,97.80
2022-08-07T06:23:25.168Z,97.80
2022-08-07T06:25:54.619Z,97.50
2022-08-07T06:28:27.156Z,97.50
2022-08-07T06:30:58.117Z,97.40
2022-08-07T06:33:27.469Z,97.30
2022-08-07T06:36:13.104Z,97.40
2022-08-07T06:38:59.105Z,97.10
2022-08-07T06:42:39.816Z,96.90
2022-08-07T06:45:17.923Z,96.60
2022-08-07T06:47:58.445Z,97.20
2022-08-07T06:50:43.315Z,97.00
2022-08-07T06:54:12.145Z,97.00
2022-08-07T06:56:07.492Z,96.90
2022-08-07T07:00:14.593Z,96.70
2022-08-07T07:01:43.744Z,96.90
2022-08-07T07:04:32.447Z,97.10
2022-08-07T07:07:18.801Z,97.50
2022-08-07T07:09:50.968Z,97.80
2022-08-07T07:12:36.647Z,98.00
2022-08-07T07:15:24.005Z,97.60
2022-08-07T07:17:58.116Z,97.10
2022-08-07T07:20:32.040Z,97.10
2022-08-07T07:24:09.337Z,97.50
2022-08-07T07:26:32.658Z,97.70
2022-08-07T07:29:28.522Z,97.90
2022-08-07T07:31:44.690Z,97.60
2022-08-07T07:34:19.689Z,97.10
2022-08-07T07:36:52.714Z,96.70
2022-08-07T07:39:25.516Z,97.40
2022-08-07T07:42:12.954Z,97.40
2022-08-07T07:44:49.368Z,96.90
2022-08-07T07:47:22.852Z,96.30
2022-08-07T07:50:33.401Z,96.80
2022-08-07T07:52:41.786Z,96.50
2022-08-07T07:55:11.003Z,96.20
2022-08-07T07:57:51.539Z,95.40
2022-08-07T08:00:31.270Z,95.60
2022-08-07T08:03:16.622Z,95.30
2022-08-07T08:06:00.781Z,95.30
2022-08-07T08:08:34.309Z,95.60
2022-08-07T08:11:16.279Z,94.60
2022-08-07T08:13:57.847Z,94.30
2022-08-07T08:16:31.922Z,94.50
2022-08-07T08:19:17.792Z,94.00
2022-08-07T08:22:11.649Z,93.60
2022-08-07T08:25:18.144Z,93.70
2022-08-07T08:27:56.312Z,92.90
2022-08-07T08:30:29.986Z,93.30
2022-08-07T08:33:01.602Z,92.90
2022-08-07T08:35:39.628Z,92.60
2022-08-07T08:38:15.671Z,92.30
2022-08-07T08:40:52.322Z,91.90
2022-08-07T08:43:41.973Z,91.30
2022-08-07T08:46:20.338Z,90.80
2022-08-07T08:48:58.310Z,90.40
2022-08-07T08:52:12.816Z,87.80
2022-08-07T08:54:47.265Z,86.00
2022-08-07T08:57:43.675Z,84.00
2022-08-07T09:00:13.691Z,83.30
2022-08-07T09:02:57.632Z,82.00
2022-08-07T09:05:38.049Z,81.30
2022-08-07T09:08:24.278Z,79.10
2022-08-07T09:11:02.860Z,78.60
2022-08-07T09:13:58.671Z,78.30
2022-08-07T09:16:35.208Z,77.20
2022-08-07T09:19:53.135Z,79.10
2022-08-07T09:24:31.521Z,78.60
2022-08-07T09:25:41.079Z,76.40
2022-08-07T09:30:05.360Z,74.50
2022-08-07T09:31:25.999Z,76.90
2022-08-07T09:34:08.346Z,76.10
2022-08-07T09:37:07.746Z,73.90
2022-08-07T09:39:55.594Z,74.20
2022-08-07T09:43:00.659Z,73.50
2022-08-07T09:47:51.765Z,71.00
2022-08-07T09:50:01.160Z,71.20
2022-08-07T09:52:15.352Z,71.10
2022-08-07T09:54:53.406Z,71.40
2022-08-07T09:57:46.702Z,69.70
2022-08-07T10:00:21.534Z,69.40
2022-08-07T10:03:07.888Z,68.80
2022-08-07T10:06:12.293Z,67.50
2022-08-07T10:08:44.319Z,68.10
2022-08-07T10:12:02.213Z,69.50
2022-08-07T10:14:13.299Z,67.10
2022-08-07T10:17:21.866Z,68.00
2022-08-07T10:19:55.972Z,66.70
2022-08-07T10:22:37.700Z,66.30
2022-08-07T10:25:22.566Z,64.20
2022-08-07T10:28:24.978Z,65.10
2022-08-07T10:31:17.695Z,65.60
2022-08-07T10:34:14.556Z,64.90
2022-08-07T10:37:18.815Z,65.60
2022-08-07T10:40:21.706Z,63.40
2022-08-07T10:43:34.385Z,65.90
2022-08-07T10:46:13.018Z,65.50
2022-08-07T10:48:55.264Z,64.30
2022-08-07T10:51:57.359Z,64.80
2022-08-07T10:55:01.673Z,66.00
2022-08-07T10:57:56.376Z,66.60
2022-08-07T11:00:36.406Z,65.40
2022-08-07T11:03:28.203Z,64.40
2022-08-07T11:06:10.862Z,63.50
2022-08-07T11:09:11.125Z,61.10
2022-08-07T11:12:11.061Z,62.00
2022-08-07T11:15:17.324Z,60.40
2022-08-07T11:18:20.330Z,61.60
2022-08-07T11:21:04.255Z,62.50
2022-08-07T11:23:39.001Z,62.20
2022-08-07T11:26:14.293Z,63.00
2022-08-07T11:28:55.232Z,60.50
2022-08-07T11:31:22.723Z,60.70
2022-08-07T11:34:11.114Z,60.50
2022-08-07T11:36:49.827Z,59.30
2022-08-07T11:39:59.512Z,58.70
2022-08-07T11:42:42.476Z,58.20
2022-08-07T11:45:35.928Z,57.80
2022-08-07T11:48:26.713Z,57.90
2022-08-07T11:51:45.068Z,58.40
2022-08-07T11:54:22.153Z,57.00
2022-08-07T11:57:14.011Z,56.20
2022-08-07T12:00:10.858Z,55.80
2022-08-07T12:03:45.674Z,55.70
2022-08-07T12:06:37.033Z,56.80
2022-08-07T12:09:46.152Z,57.70
2022-08-07T12:12:22.418Z,57.80
2022-08-07T12:15:08.212Z,55.90
2022-08-07T12:18:03.137Z,56.00
2022-08-07T12:21:14.925Z,55.70
2022-08-07T12:24:06.651Z,56.20
2022-08-07T12:26:49.365Z,56.00
2022-08-07T12:29:37.646Z,54.90
2022-08-07T12:32:29.872Z,56.00
2022-08-07T12:34:59.253Z,55.80
2022-08-07T12:38:11.274Z,55.00
2022-08-07T12:40:44.129Z,54.60
2022-08-07T12:43:10.724Z,53.20
2022-08-07T12:46:04.337Z,54.00
2022-08-07T12:48:52.104Z,53.10
2022-08-07T12:51:51.505Z,51.80
2022-08-07T12:54:38.214Z,51.70
2022-08-07T12:57:09.437Z,51.80
2022-08-07T12:59:53.861Z,52.50
2022-08-07T13:02:33.220Z,52.30
2022-08-07T13:06:02.037Z,52.00
2022-08-07T13:08:18.952Z,51.10
2022-08-07T13:10:56.975Z,51.10
2022-08-07T13:13:48.348Z,50.90
2022-08-07T13:16:32.419Z,49.70
2022-08-07T13:19:21.891Z,50.10
2022-08-07T13:22:12.706Z,51.30
2022-08-07T13:25:00.200Z,51.40
2022-08-07T13:28:12.659Z,50.90
2022-08-07T13:30:41.301Z,50.90
2022-08-07T13:34:30.566Z,50.80
2022-08-07T13:36:17.727Z,51.10
2022-08-07T13:38:45.535Z,49.80
2022-08-07T13:41:29.268Z,49.60
2022-08-07T13:43:57.377Z,49.00
2022-08-07T13:46:33.188Z,50.50
2022-08-07T13:49:01.470Z,50.00
2022-08-07T13:52:04.414Z,50.00
2022-08-07T13:54:23.482Z,49.30
2022-08-07T13:56:55.801Z,49.40
2022-08-07T13:59:27.746Z,47.80
2022-08-07T14:02:04.649Z,48.20
2022-08-07T14:04:35.685Z,48.10
2022-08-07T14:07:09.557Z,48.90
2022-08-07T14:10:02.721Z,48.80
2022-08-07T14:12:27.617Z,49.20
2022-08-07T14:14:58.746Z,48.70
2022-08-07T14:18:13.017Z,48.20
2022-08-07T14:22:00.505Z,48.50
2022-08-07T14:24:05.447Z,47.00
2022-08-07T14:26:40.816Z,48.50
2022-08-07T14:30:07.652Z,47.80
2022-08-07T14:32:12.291Z,47.40
2022-08-07T14:34:46.328Z,47.90
2022-08-07T14:37:17.272Z,48.50
2022-08-07T14:40:16.871Z,47.80
2022-08-07T14:43:00.828Z,46.30
2022-08-07T14:45:46.825Z,46.90
2022-08-07T14:48:19.926Z,47.50
2022-08-07T14:50:56.231Z,49.00
2022-08-07T14:56:15.698Z,47.10
2022-08-07T14:59:02.652Z,46.30
2022-08-07T15:01:42.838Z,46.70
2022-08-07T15:04:19.091Z,45.60
2022-08-07T15:06:48.847Z,46.00
2022-08-07T15:12:26.067Z,49.00
2022-08-07T15:15:07.424Z,48.30
2022-08-07T15:20:35.721Z,49.10
2022-08-07T15:25:13.618Z,51.10
2022-08-07T15:26:20.902Z,50.60
2022-08-07T15:28:58.430Z,49.20
2022-08-07T15:32:00.886Z,47.90
2022-08-07T15:34:17.227Z,48.20
2022-08-07T15:39:57.011Z,49.60
2022-08-07T15:42:48.154Z,49.40
2022-08-07T15:45:55.489Z,50.50
2022-08-07T15:48:33.194Z,47.40
2022-08-07T15:51:09.348Z,47.50
2022-08-07T15:53:52.792Z,47.00
2022-08-07T15:56:34.100Z,47.50
2022-08-07T15:59:07.591Z,48.00
2022-08-07T16:02:02.464Z,50.30
2022-08-07T16:04:33.962Z,48.60
2022-08-07T16:07:04.717Z,48.80
2022-08-07T16:09:46.839Z,49.10
2022-08-07T16:12:38.976Z,49.70
2022-08-07T16:15:58.024Z,49.80
2022-08-07T16:18:50.004Z,49.90
2022-08-07T16:22:01.771Z,50.30
2022-08-07T16:24:35.540Z,50.50
2022-08-07T16:27:18.235Z,49.50
2022-08-07T16:30:32.433Z,48.80
2022-08-07T16:34:02.931Z,47.90
2022-08-07T16:36:20.302Z,47.40
2022-08-07T16:39:16.786Z,49.00
2022-08-07T16:42:03.587Z,49.70
2022-08-07T16:48:16.476Z,49.20
2022-08-07T16:51:54.631Z,48.00
2022-08-07T16:54:38.539Z,48.20
2022-08-07T16:58:02.984Z,50.00
2022-08-07T17:00:39.864Z,50.80
2022-08-07T17:03:59.413Z,50.70
2022-08-07T17:07:04.066Z,50.90
2022-08-07T17:10:06.385Z,49.10
2022-08-07T17:12:48.573Z,49.70
2022-08-07T17:15:44.183Z,49.40
2022-08-07T17:18:37.199Z,50.30
2022-08-07T17:21:18.827Z,50.30
2022-08-07T17:24:01.974Z,50.10
2022-08-07T17:27:00.028Z,52.20
2022-08-07T17:30:15.891Z,54.80
2022-08-07T17:33:05.608Z,56.80
2022-08-07T17:35:56.321Z,60.50
2022-08-07T17:39:00.674Z,59.30
2022-08-07T17:42:04.347Z,60.60
2022-08-07T17:44:41.495Z,62.80
2022-08-07T17:47:16.632Z,63.10
2022-08-07T17:50:00.247Z,62.50
2022-08-07T17:52:43.219Z,64.20
2022-08-07T17:55:14.216Z,64.30
2022-08-07T17:58:07.084Z,64.50
2022-08-07T18:00:49.307Z,65.70
2022-08-07T18:04:04.274Z,65.80
2022-08-07T18:07:19.549Z,66.10
2022-08-07T18:10:04.649Z,66.30
2022-08-07T18:12:47.960Z,67.20
2022-08-07T18:15:32.685Z,67.60
2022-08-07T18:18:39.813Z,67.70
2022-08-07T18:21:57.929Z,67.80
2022-08-07T18:24:34.287Z,68.70
2022-08-07T18:27:38.311Z,69.00
2022-08-07T18:30:30.643Z,70.30
2022-08-07T18:33:36.520Z,69.50
2022-08-07T18:36:32.931Z,70.50
2022-08-07T18:40:06.440Z,70.60
2022-08-07T18:42:13.360Z,70.30
2022-08-07T18:45:44.542Z,72.40
2022-08-07T18:50:05.828Z,72.50
2022-08-07T18:52:37.929Z,73.90
2022-08-07T18:54:40.473Z,74.30
2022-08-07T18:57:30.963Z,75.10
2022-08-07T18:59:59.425Z,75.10
2022-08-07T19:02:55.917Z,75.10
2022-08-07T19:06:02.027Z,76.00
2022-08-07T19:08:29.467Z,76.30
2022-08-07T19:11:36.173Z,76.40
2022-08-07T19:14:11.625Z,77.10
2022-08-07T19:17:07.940Z,77.60
2022-08-07T19:19:56.803Z,76.70
2022-08-07T19:22:45.053Z,77.40
2022-08-07T19:26:24.049Z,79.10
2022-08-07T19:28:57.738Z,79.00
2022-08-07T19:31:37.162Z,79.40
2022-08-07T19:33:59.641Z,79.50
2022-08-07T19:36:30.581Z,80.50
2022-08-07T19:39:00.626Z,80.10
2022-08-07T19:41:45.000Z,80.70
2022-08-07T19:44:37.639Z,80.70
2022-08-07T19:47:10.956Z,81.40
2022-08-07T19:49:57.762Z,81.40
2022-08-07T19:52:30.923Z,81.70
2022-08-07T19:55:00.026Z,82.30
2022-08-07T19:57:59.983Z,83.40
2022-08-07T20:00:29.797Z,83.80
2022-08-07T20:03:02.859Z,83.80
2022-08-07T20:06:00.391Z,83.60
2022-08-07T20:08:34.026Z,84.00
2022-08-07T20:11:09.875Z,84.40
2022-08-07T20:13:55.097Z,84.30
2022-08-07T20:16:35.110Z,85.20
2022-08-07T20:19:06.143Z,85.80
2022-08-07T20:21:46.542Z,85.90
2022-08-07T20:24:32.579Z,85.70
2022-08-07T20:27:02.547Z,85.90
2022-08-07T20:29:48.883Z,85.90
2022-08-07T20:32:27.855Z,86.30
2022-08-07T20:35:26.100Z,85.80
2022-08-07T20:37:59.434Z,86.30
2022-08-07T20:40:33.191Z,86.50
2022-08-07T20:43:14.673Z,87.20
2022-08-07T20:46:28.241Z,87.20
2022-08-07T20:49:53.838Z,87.80
2022-08-07T20:51:31.398Z,88.50
2022-08-07T20:54:09.236Z,88.10
2022-08-07T20:56:46.133Z,88.10
2022-08-07T21:00:04.839Z,88.20
2022-08-07T21:02:32.967Z,88.40
2022-08-07T21:05:01.789Z,89.30
2022-08-07T21:07:38.404Z,90.00
2022-08-07T21:10:11.637Z,89.70
2022-08-07T21:12:39.978Z,89.00
2022-08-07T21:15:18.839Z,89.10
2022-08-07T21:18:20.446Z,89.80
2022-08-07T21:20:38.377Z,89.40
2022-08-07T21:23:27.429Z,89.70
2022-08-07T21:26:03.472Z,90.00
2022-08-07T21:28:48.941Z,90.10
2022-08-07T21:31:50.115Z,90.20
2022-08-07T21:34:46.152Z,90.30
2022-08-07T21:37:57.898Z,90.40
2022-08-07T21:40:40.950Z,90.00
2022-08-07T21:43:55.432Z,89.30
2022-08-07T21:46:31.602Z,89.10
2022-08-07T21:49:27.026Z,88.70
2022-08-07T21:52:11.512Z,88.60
2022-08-07T21:55:19.456Z,88.40
2022-08-07T21:58:30.578Z,88.90
2022-08-07T22:01:08.467Z,88.90
2022-08-07T22:04:00.507Z,89.80
2022-08-07T22:06:34.839Z,89.80
2022-08-07T22:09:10.997Z,90.00
2022-08-07T22:12:05.630Z,90.00
2022-08-07T22:14:59.439Z,90.00
2022-08-07T22:17:36.795Z,90.20
2022-08-07T22:20:23.540Z,90.20
2022-08-07T22:23:09.124Z,90.30
2022-08-07T22:26:13.324Z,90.40
2022-08-07T22:28:53.525Z,90.90
2022-08-07T22:32:00.391Z,90.80
2022-08-07T22:34:40.955Z,91.20
2022-08-07T22:38:03.374Z,91.20
2022-08-07T22:40:35.827Z,91.40
2022-08-07T22:43:10.790Z,91.80
2022-08-07T22:46:43.055Z,92.00
2022-08-07T22:49:11.191Z,92.20
2022-08-07T22:52:13.357Z,92.40
2022-08-07T22:55:23.144Z,92.10
2022-08-07T22:58:04.582Z,92.30
2022-08-07T23:01:07.029Z,92.40
2022-08-07T23:03:57.437Z,92.00
2022-08-07T23:07:03.087Z,91.90
2022-08-07T23:10:37.601Z,91.70
2022-08-07T23:13:49.031Z,92.00
2022-08-07T23:16:44.440Z,91.90
2022-08-07T23:19:58.054Z,91.90
2022-08-07T23:22:43.679Z,92.00
2022-08-07T23:25:18.402Z,91.80
2022-08-07T23:28:22.685Z,91.90
2022-08-07T23:31:06.474Z,92.40
2022-08-07T23:34:36.720Z,92.30
2022-08-07T23:37:36.043Z,92.70
2022-08-07T23:40:49.324Z,93.00
2022-08-07T23:43:52.749Z,93.30
2022-08-07T23:46:43.116Z,93.30
2022-08-07T23:49:42.090Z,93.40
2022-08-07T23:53:01.820Z,93.60
2022-08-07T23:55:51.779Z,93.70
2022-08-07T23:58:42.293Z,93.80
